sensor_id;sensor_type;location;lat;lon;timestamp;pressure;altitude;pressure_sealevel;temperature;humidity
12203;BME280;6164;42.178;24.622;2023-04-29T00:00:10;99827.44;;;8.07;100.00
12203;BME280;6164;42.178;24.622;2023-04-29T00:02:37;99828.91;;;7.92;100.00
12203;BME280;6164;42.178;24.622;2023-04-29T00:05:04;99824.06;;;7.87;100.00
12203;BME280;6164;42.178;24.622;2023-04-29T00:07:32;99828.91;;;7.92;100.00
12203;BME280;6164;42.178;24.622;2023-04-29T00:10:01;99837.25;;;7.78;100.00
12203;BME280;6164;42.178;24.622;2023-04-29T00:12:27;99834.00;;;7.57;100.00
12203;BME280;6164;42.178;24.622;2023-04-29T00:14:56;99820.94;;;7.28;100.00
12203;BME280;6164;42.178;24.622;2023-04-29T00:17:23;99834.66;;;7.22;100.00
12203;BME280;6164;42.178;24.622;2023-04-29T00:19:49;99832.31;;;7.10;100.00
12203;BME280;6164;42.178;24.622;2023-04-29T00:22:16;99832.63;;;7.07;100.00
12203;BME280;6164;42.178;24.622;2023-04-29T00:24:44;99825.25;;;7.10;100.00
12203;BME280;6164;42.178;24.622;2023-04-29T00:27:11;99822.50;;;7.12;100.00
12203;BME280;6164;42.178;24.622;2023-04-29T00:29:38;99829.53;;;7.21;100.00
12203;BME280;6164;42.178;24.622;2023-04-29T00:32:04;99826.63;;;7.24;100.00
12203;BME280;6164;42.178;24.622;2023-04-29T00:34:31;99827.31;;;7.26;100.00
12203;BME280;6164;42.178;24.622;2023-04-29T00:36:58;99826.94;;;7.11;100.00
12203;BME280;6164;42.178;24.622;2023-04-29T00:39:24;99842.81;;;7.00;100.00
12203;BME280;6164;42.178;24.622;2023-04-29T00:41:53;99841.31;;;6.88;100.00
12203;BME280;6164;42.178;24.622;2023-04-29T00:44:19;99832.22;;;6.73;100.00
12203;BME280;6164;42.178;24.622;2023-04-29T00:46:46;99832.06;;;6.84;100.00
12203;BME280;6164;42.178;24.622;2023-04-29T00:49:13;99833.72;;;6.95;100.00
12203;BME280;6164;42.178;24.622;2023-04-29T00:51:40;99829.97;;;6.97;100.00
12203;BME280;6164;42.178;24.622;2023-04-29T00:54:08;99832.22;;;6.73;100.00
12203;BME280;6164;42.178;24.622;2023-04-29T00:56:36;99832.06;;;6.84;100.00
12203;BME280;6164;42.178;24.622;2023-04-29T00:59:08;99832.19;;;6.83;100.00
12203;BME280;6164;42.178;24.622;2023-04-29T01:01:37;99831.25;;;6.64;100.00
12203;BME280;6164;42.178;24.622;2023-04-29T01:04:04;99831.50;;;6.42;100.00
12203;BME280;6164;42.178;24.622;2023-04-29T01:06:43;99832.56;;;6.21;100.00
12203;BME280;6164;42.178;24.622;2023-04-29T01:09:25;99831.31;;;6.15;100.00
12203;BME280;6164;42.178;24.622;2023-04-29T01:12:02;99837.47;;;6.05;100.00
12203;BME280;6164;42.178;24.622;2023-04-29T01:14:33;99837.47;;;5.95;100.00
12203;BME280;6164;42.178;24.622;2023-04-29T01:17:05;99839.16;;;6.06;100.00
12203;BME280;6164;42.178;24.622;2023-04-29T01:19:40;99841.47;;;5.99;100.00
12203;BME280;6164;42.178;24.622;2023-04-29T01:22:08;99831.56;;;6.03;100.00
12203;BME280;6164;42.178;24.622;2023-04-29T01:24:37;99832.81;;;6.18;100.00
12203;BME280;6164;42.178;24.622;2023-04-29T01:27:10;99824.16;;;6.27;100.00
12203;BME280;6164;42.178;24.622;2023-04-29T01:29:43;99829.84;;;6.41;100.00
12203;BME280;6164;42.178;24.622;2023-04-29T01:32:16;99808.00;;;6.22;100.00
12203;BME280;6164;42.178;24.622;2023-04-29T01:34:48;99831.03;;;6.28;100.00
12203;BME280;6164;42.178;24.622;2023-04-29T01:37:24;99802.75;;;6.12;100.00
12203;BME280;6164;42.178;24.622;2023-04-29T01:40:01;99822.25;;;6.29;100.00
12203;BME280;6164;42.178;24.622;2023-04-29T01:42:37;99806.22;;;6.22;100.00
12203;BME280;6164;42.178;24.622;2023-04-29T01:45:07;99818.94;;;6.36;100.00
12203;BME280;6164;42.178;24.622;2023-04-29T01:47:36;99812.88;;;6.45;100.00
12203;BME280;6164;42.178;24.622;2023-04-29T01:50:06;99808.06;;;6.50;100.00
12203;BME280;6164;42.178;24.622;2023-04-29T01:52:32;99811.91;;;6.56;100.00
12203;BME280;6164;42.178;24.622;2023-04-29T01:55:00;99802.66;;;6.61;100.00
12203;BME280;6164;42.178;24.622;2023-04-29T01:57:27;99805.28;;;6.61;100.00
12203;BME280;6164;42.178;24.622;2023-04-29T01:59:54;99800.72;;;6.54;100.00
12203;BME280;6164;42.178;24.622;2023-04-29T02:02:21;99796.88;;;6.48;100.00
12203;BME280;6164;42.178;24.622;2023-04-29T02:04:49;99812.03;;;6.45;100.00
12203;BME280;6164;42.178;24.622;2023-04-29T02:07:16;99813.25;;;6.31;100.00
12203;BME280;6164;42.178;24.622;2023-04-29T02:09:43;99813.53;;;6.19;100.00
12203;BME280;6164;42.178;24.622;2023-04-29T02:12:11;99810.22;;;6.26;100.00
12203;BME280;6164;42.178;24.622;2023-04-29T02:14:38;99818.63;;;6.11;100.00
12203;BME280;6164;42.178;24.622;2023-04-29T02:17:05;99820.69;;;6.07;100.00
12203;BME280;6164;42.178;24.622;2023-04-29T02:19:31;99793.53;;;5.78;100.00
12203;BME280;6164;42.178;24.622;2023-04-29T02:21:58;99814.56;;;5.67;100.00
12203;BME280;6164;42.178;24.622;2023-04-29T02:24:25;99804.97;;;5.47;100.00
12203;BME280;6164;42.178;24.622;2023-04-29T02:26:52;99780.44;;;5.18;100.00
12203;BME280;6164;42.178;24.622;2023-04-29T02:29:20;99794.25;;;5.20;100.00
12203;BME280;6164;42.178;24.622;2023-04-29T02:31:46;99805.53;;;5.20;100.00
12203;BME280;6164;42.178;24.622;2023-04-29T02:34:13;99795.13;;;5.09;100.00
12203;BME280;6164;42.178;24.622;2023-04-29T02:36:40;99800.19;;;5.01;100.00
12203;BME280;6164;42.178;24.622;2023-04-29T02:39:07;99798.22;;;4.94;100.00
12203;BME280;6164;42.178;24.622;2023-04-29T02:41:33;99795.22;;;4.98;100.00
12203;BME280;6164;42.178;24.622;2023-04-29T02:44:00;99797.03;;;5.07;100.00
12203;BME280;6164;42.178;24.622;2023-04-29T02:46:28;99803.25;;;5.06;100.00
12203;BME280;6164;42.178;24.622;2023-04-29T02:48:57;99797.56;;;5.01;100.00
12203;BME280;6164;42.178;24.622;2023-04-29T02:51:23;99803.09;;;5.08;100.00
12203;BME280;6164;42.178;24.622;2023-04-29T02:53:50;99808.16;;;5.00;100.00
12203;BME280;6164;42.178;24.622;2023-04-29T02:56:17;99822.25;;;4.88;100.00
12203;BME280;6164;42.178;24.622;2023-04-29T02:58:44;99812.03;;;4.85;100.00
12203;BME280;6164;42.178;24.622;2023-04-29T03:01:11;99813.75;;;4.75;100.00
12203;BME280;6164;42.178;24.622;2023-04-29T03:03:39;99815.91;;;4.70;100.00
12203;BME280;6164;42.178;24.622;2023-04-29T03:06:05;99807.38;;;4.88;100.00
12203;BME280;6164;42.178;24.622;2023-04-29T03:08:32;99818.38;;;4.82;100.00
12203;BME280;6164;42.178;24.622;2023-04-29T03:11:00;99805.66;;;4.78;100.00
12203;BME280;6164;42.178;24.622;2023-04-29T03:13:26;99820.53;;;4.77;100.00
12203;BME280;6164;42.178;24.622;2023-04-29T03:15:53;99824.00;;;4.67;100.00
12203;BME280;6164;42.178;24.622;2023-04-29T03:18:22;99831.41;;;4.62;100.00
12203;BME280;6164;42.178;24.622;2023-04-29T03:20:51;99820.47;;;4.68;100.00
12203;BME280;6164;42.178;24.622;2023-04-29T03:23:17;99819.81;;;4.75;100.00
12203;BME280;6164;42.178;24.622;2023-04-29T03:25:44;99827.88;;;4.83;100.00
12203;BME280;6164;42.178;24.622;2023-04-29T03:28:11;99829.16;;;4.89;100.00
12203;BME280;6164;42.178;24.622;2023-04-29T03:30:37;99829.09;;;5.00;100.00
12203;BME280;6164;42.178;24.622;2023-04-29T03:33:04;99828.03;;;5.02;100.00
12203;BME280;6164;42.178;24.622;2023-04-29T03:35:31;99822.00;;;5.11;100.00
12203;BME280;6164;42.178;24.622;2023-04-29T03:37:59;99824.19;;;5.27;100.00
12203;BME280;6164;42.178;24.622;2023-04-29T03:40:26;99826.78;;;5.27;100.00
12203;BME280;6164;42.178;24.622;2023-04-29T03:42:53;99828.19;;;5.31;100.00
12203;BME280;6164;42.178;24.622;2023-04-29T03:45:19;99838.47;;;5.44;100.00
12203;BME280;6164;42.178;24.622;2023-04-29T03:47:46;99842.06;;;5.52;100.00
12203;BME280;6164;42.178;24.622;2023-04-29T03:50:13;99847.69;;;5.68;100.00
12203;BME280;6164;42.178;24.622;2023-04-29T03:52:40;99853.28;;;5.84;100.00
12203;BME280;6164;42.178;24.622;2023-04-29T03:55:08;99846.03;;;5.97;100.00
12203;BME280;6164;42.178;24.622;2023-04-29T03:57:35;99851.16;;;6.08;100.00
12203;BME280;6164;42.178;24.622;2023-04-29T04:00:03;99852.84;;;6.19;100.00
12203;BME280;6164;42.178;24.622;2023-04-29T04:02:30;99847.75;;;6.27;100.00
12203;BME280;6164;42.178;24.622;2023-04-29T04:04:56;99859.94;;;6.37;100.00
12203;BME280;6164;42.178;24.622;2023-04-29T04:07:23;99861.00;;;6.35;100.00
12203;BME280;6164;42.178;24.622;2023-04-29T04:09:50;99862.66;;;6.26;100.00
12203;BME280;6164;42.178;24.622;2023-04-29T04:12:18;99851.09;;;6.48;100.00
12203;BME280;6164;42.178;24.622;2023-04-29T04:14:45;99860.47;;;6.41;100.00
12203;BME280;6164;42.178;24.622;2023-04-29T04:17:11;99869.72;;;6.26;100.00
12203;BME280;6164;42.178;24.622;2023-04-29T04:19:38;99865.88;;;6.00;100.00
12203;BME280;6164;42.178;24.622;2023-04-29T04:22:05;99867.38;;;5.93;100.00
12203;BME280;6164;42.178;24.622;2023-04-29T04:24:32;99862.03;;;6.04;100.00
12203;BME280;6164;42.178;24.622;2023-04-29T04:26:58;99857.63;;;6.04;100.00
12203;BME280;6164;42.178;24.622;2023-04-29T04:29:27;99854.19;;;6.13;100.00
12203;BME280;6164;42.178;24.622;2023-04-29T04:31:54;99859.22;;;6.35;100.00
12203;BME280;6164;42.178;24.622;2023-04-29T04:34:21;99858.41;;;6.35;100.00
12203;BME280;6164;42.178;24.622;2023-04-29T04:36:47;99857.03;;;6.59;100.00
12203;BME280;6164;42.178;24.622;2023-04-29T04:39:14;99855.53;;;6.66;100.00
12203;BME280;6164;42.178;24.622;2023-04-29T04:41:41;99865.19;;;6.76;100.00
12203;BME280;6164;42.178;24.622;2023-04-29T04:44:07;99868.94;;;6.73;100.00
12203;BME280;6164;42.178;24.622;2023-04-29T04:46:36;99874.19;;;6.63;100.00
12203;BME280;6164;42.178;24.622;2023-04-29T04:49:03;99877.34;;;6.57;100.00
12203;BME280;6164;42.178;24.622;2023-04-29T04:51:30;99870.44;;;6.47;100.00
12203;BME280;6164;42.178;24.622;2023-04-29T04:53:56;99872.22;;;6.46;100.00
12203;BME280;6164;42.178;24.622;2023-04-29T04:56:23;99875.53;;;6.48;100.00
12203;BME280;6164;42.178;24.622;2023-04-29T04:58:50;99882.56;;;6.57;100.00
12203;BME280;6164;42.178;24.622;2023-04-29T05:01:17;99889.22;;;6.61;100.00
12203;BME280;6164;42.178;24.622;2023-04-29T05:03:45;99887.31;;;6.63;100.00
12203;BME280;6164;42.178;24.622;2023-04-29T05:06:11;99886.88;;;6.78;100.00
12203;BME280;6164;42.178;24.622;2023-04-29T05:08:38;99883.28;;;6.69;100.00
12203;BME280;6164;42.178;24.622;2023-04-29T05:11:05;99881.34;;;6.71;100.00
12203;BME280;6164;42.178;24.622;2023-04-29T05:13:32;99875.97;;;6.82;100.00
12203;BME280;6164;42.178;24.622;2023-04-29T05:16:01;99878.91;;;6.98;100.00
12203;BME280;6164;42.178;24.622;2023-04-29T05:18:28;99881.09;;;7.12;100.00
12203;BME280;6164;42.178;24.622;2023-04-29T05:20:56;99871.53;;;7.21;100.00
12203;BME280;6164;42.178;24.622;2023-04-29T05:23:24;99865.31;;;7.41;100.00
12203;BME280;6164;42.178;24.622;2023-04-29T05:25:51;99863.31;;;7.62;100.00
12203;BME280;6164;42.178;24.622;2023-04-29T05:28:17;99863.06;;;7.82;100.00
12203;BME280;6164;42.178;24.622;2023-04-29T05:30:44;99843.13;;;7.89;100.00
12203;BME280;6164;42.178;24.622;2023-04-29T05:33:11;99846.41;;;8.01;100.00
12203;BME280;6164;42.178;24.622;2023-04-29T05:35:38;99845.47;;;8.20;100.00
12203;BME280;6164;42.178;24.622;2023-04-29T05:38:06;99829.69;;;8.20;100.00
12203;BME280;6164;42.178;24.622;2023-04-29T05:40:33;99839.63;;;8.35;100.00
12203;BME280;6164;42.178;24.622;2023-04-29T05:43:00;99840.59;;;8.52;100.00
12203;BME280;6164;42.178;24.622;2023-04-29T05:45:26;99837.00;;;8.70;100.00
12203;BME280;6164;42.178;24.622;2023-04-29T05:47:53;99832.03;;;8.85;100.00
12203;BME280;6164;42.178;24.622;2023-04-29T05:50:20;99832.34;;;8.99;100.00
12203;BME280;6164;42.178;24.622;2023-04-29T05:52:46;99830.41;;;9.09;100.00
12203;BME280;6164;42.178;24.622;2023-04-29T05:55:17;99828.03;;;9.42;100.00
12203;BME280;6164;42.178;24.622;2023-04-29T05:57:44;99826.78;;;9.54;100.00
12203;BME280;6164;42.178;24.622;2023-04-29T06:00:11;99828.34;;;9.72;100.00
12203;BME280;6164;42.178;24.622;2023-04-29T06:02:38;99828.66;;;9.95;100.00
12203;BME280;6164;42.178;24.622;2023-04-29T06:05:07;99820.00;;;10.10;99.21
12203;BME280;6164;42.178;24.622;2023-04-29T06:07:34;99825.78;;;10.22;95.51
12203;BME280;6164;42.178;24.622;2023-04-29T06:10:01;99821.34;;;10.22;91.95
12203;BME280;6164;42.178;24.622;2023-04-29T06:12:30;99821.22;;;10.32;90.82
12203;BME280;6164;42.178;24.622;2023-04-29T06:14:56;99823.69;;;10.41;88.50
12203;BME280;6164;42.178;24.622;2023-04-29T06:17:23;99819.78;;;10.53;88.51
12203;BME280;6164;42.178;24.622;2023-04-29T06:19:50;99812.53;;;10.63;87.57
12203;BME280;6164;42.178;24.622;2023-04-29T06:22:17;99816.19;;;10.79;84.37
12203;BME280;6164;42.178;24.622;2023-04-29T06:24:43;99814.38;;;10.95;84.39
12203;BME280;6164;42.178;24.622;2023-04-29T06:27:11;99814.53;;;11.10;81.93
12203;BME280;6164;42.178;24.622;2023-04-29T06:29:39;99813.84;;;11.24;80.49
12203;BME280;6164;42.178;24.622;2023-04-29T06:32:06;99827.91;;;11.24;78.41
12203;BME280;6164;42.178;24.622;2023-04-29T06:34:33;99816.81;;;11.45;77.99
12203;BME280;6164;42.178;24.622;2023-04-29T06:37:00;99818.94;;;11.65;78.01
12203;BME280;6164;42.178;24.622;2023-04-29T06:39:27;99814.72;;;11.87;77.20
12203;BME280;6164;42.178;24.622;2023-04-29T06:41:53;99813.91;;;11.86;75.64
12203;BME280;6164;42.178;24.622;2023-04-29T06:44:20;99819.31;;;11.93;74.70
12203;BME280;6164;42.178;24.622;2023-04-29T06:46:49;99823.16;;;11.90;71.80
12203;BME280;6164;42.178;24.622;2023-04-29T06:49:15;99812.66;;;12.05;71.42
12203;BME280;6164;42.178;24.622;2023-04-29T06:51:42;99805.22;;;12.09;71.82
12203;BME280;6164;42.178;24.622;2023-04-29T06:54:09;99786.00;;;12.37;73.51
12203;BME280;6164;42.178;24.622;2023-04-29T06:56:36;99796.66;;;12.60;71.87
12203;BME280;6164;42.178;24.622;2023-04-29T06:59:02;99797.13;;;12.63;70.74
12203;BME280;6164;42.178;24.622;2023-04-29T07:01:29;99802.00;;;12.74;69.22
12203;BME280;6164;42.178;24.622;2023-04-29T07:03:57;99800.59;;;12.86;68.64
12203;BME280;6164;42.178;24.622;2023-04-29T07:06:24;99811.56;;;13.06;67.21
12203;BME280;6164;42.178;24.622;2023-04-29T07:08:51;99800.16;;;13.35;67.18
12203;BME280;6164;42.178;24.622;2023-04-29T07:11:18;99807.06;;;13.58;66.47
12203;BME280;6164;42.178;24.622;2023-04-29T07:13:44;99810.44;;;13.67;65.84
12203;BME280;6164;42.178;24.622;2023-04-29T07:16:14;99814.56;;;13.69;65.34
12203;BME280;6164;42.178;24.622;2023-04-29T07:18:42;99814.56;;;13.69;63.86
12203;BME280;6164;42.178;24.622;2023-04-29T07:21:10;99810.28;;;13.68;64.11
12203;BME280;6164;42.178;24.622;2023-04-29T07:23:37;99803.84;;;13.77;64.82
12203;BME280;6164;42.178;24.622;2023-04-29T07:26:08;99802.75;;;13.86;65.15
12203;BME280;6164;42.178;24.622;2023-04-29T07:28:35;99792.19;;;14.07;65.91
12203;BME280;6164;42.178;24.622;2023-04-29T07:31:02;99808.22;;;14.14;63.86
12203;BME280;6164;42.178;24.622;2023-04-29T07:33:29;99802.53;;;14.17;63.34
12203;BME280;6164;42.178;24.622;2023-04-29T07:35:55;99806.00;;;14.32;63.73
12203;BME280;6164;42.178;24.622;2023-04-29T07:38:23;99800.88;;;14.30;62.78
12203;BME280;6164;42.178;24.622;2023-04-29T07:40:50;99787.41;;;14.32;62.65
12203;BME280;6164;42.178;24.622;2023-04-29T07:43:17;99787.75;;;14.65;63.55
12203;BME280;6164;42.178;24.622;2023-04-29T07:45:44;99806.13;;;14.81;62.82
12203;BME280;6164;42.178;24.622;2023-04-29T07:48:10;99810.69;;;14.66;61.63
12203;BME280;6164;42.178;24.622;2023-04-29T07:50:37;99798.97;;;14.81;62.28
12203;BME280;6164;42.178;24.622;2023-04-29T07:53:04;99817.81;;;14.86;60.86
12203;BME280;6164;42.178;24.622;2023-04-29T07:55:33;99779.69;;;14.94;61.55
12203;BME280;6164;42.178;24.622;2023-04-29T07:57:59;99812.75;;;15.12;59.92
12203;BME280;6164;42.178;24.622;2023-04-29T08:00:26;99808.44;;;15.11;59.74
12203;BME280;6164;42.178;24.622;2023-04-29T08:02:54;99797.41;;;15.14;60.77
12203;BME280;6164;42.178;24.622;2023-04-29T08:05:21;99806.44;;;15.13;59.60
12203;BME280;6164;42.178;24.622;2023-04-29T08:07:48;99810.72;;;15.14;58.65
12203;BME280;6164;42.178;24.622;2023-04-29T08:10:15;99794.66;;;15.29;59.53
12203;BME280;6164;42.178;24.622;2023-04-29T08:12:46;99792.00;;;15.50;59.46
12203;BME280;6164;42.178;24.622;2023-04-29T08:15:12;99822.78;;;15.65;57.26
12203;BME280;6164;42.178;24.622;2023-04-29T08:17:39;99822.31;;;15.83;57.67
12203;BME280;6164;42.178;24.622;2023-04-29T08:20:07;99824.22;;;15.96;55.66
12203;BME280;6164;42.178;24.622;2023-04-29T08:22:34;99816.88;;;16.04;55.17
12203;BME280;6164;42.178;24.622;2023-04-29T08:25:02;99837.88;;;16.27;54.19
12203;BME280;6164;42.178;24.622;2023-04-29T08:27:29;99859.84;;;16.35;53.45
12203;BME280;6164;42.178;24.622;2023-04-29T08:29:58;99845.38;;;16.51;54.03
12203;BME280;6164;42.178;24.622;2023-04-29T08:32:24;99847.47;;;16.62;53.34
12203;BME280;6164;42.178;24.622;2023-04-29T08:34:51;99871.22;;;16.50;51.82
12203;BME280;6164;42.178;24.622;2023-04-29T08:37:18;99868.34;;;16.52;52.46
12203;BME280;6164;42.178;24.622;2023-04-29T08:39:45;99878.19;;;16.58;51.66
12203;BME280;6164;42.178;24.622;2023-04-29T08:42:12;99861.00;;;16.60;52.43
12203;BME280;6164;42.178;24.622;2023-04-29T08:44:39;99858.94;;;16.69;52.45
12203;BME280;6164;42.178;24.622;2023-04-29T08:47:08;99870.03;;;16.72;51.69
12203;BME280;6164;42.178;24.622;2023-04-29T08:49:35;99833.38;;;16.94;53.28
12203;BME280;6164;42.178;24.622;2023-04-29T08:52:02;99846.31;;;16.97;52.93
12203;BME280;6164;42.178;24.622;2023-04-29T08:54:30;99840.38;;;17.15;51.91
12203;BME280;6164;42.178;24.622;2023-04-29T08:56:57;99859.69;;;17.36;51.07
12203;BME280;6164;42.178;24.622;2023-04-29T08:59:27;99879.59;;;17.40;49.83
12203;BME280;6164;42.178;24.622;2023-04-29T09:01:55;99859.72;;;17.56;50.73
12203;BME280;6164;42.178;24.622;2023-04-29T09:04:30;99864.84;;;17.70;49.95
12203;BME280;6164;42.178;24.622;2023-04-29T09:07:03;99853.72;;;17.80;51.12
12203;BME280;6164;42.178;24.622;2023-04-29T09:09:31;99876.34;;;17.71;49.22
12203;BME280;6164;42.178;24.622;2023-04-29T09:11:58;99897.28;;;17.80;48.44
12203;BME280;6164;42.178;24.622;2023-04-29T09:14:25;99867.66;;;17.95;49.66
12203;BME280;6164;42.178;24.622;2023-04-29T09:16:52;99871.38;;;17.74;48.48
12203;BME280;6164;42.178;24.622;2023-04-29T09:19:30;99884.72;;;18.00;49.06
12203;BME280;6164;42.178;24.622;2023-04-29T09:21:58;99890.44;;;18.17;47.95
12203;BME280;6164;42.178;24.622;2023-04-29T09:24:25;99908.16;;;17.98;47.04
12203;BME280;6164;42.178;24.622;2023-04-29T09:26:53;99898.88;;;17.94;47.24
12203;BME280;6164;42.178;24.622;2023-04-29T09:29:20;99884.94;;;17.86;47.54
12203;BME280;6164;42.178;24.622;2023-04-29T09:31:47;99840.16;;;17.81;47.56
12203;BME280;6164;42.178;24.622;2023-04-29T09:34:14;99859.22;;;18.04;48.35
12203;BME280;6164;42.178;24.622;2023-04-29T09:36:43;99862.00;;;18.29;48.20
12203;BME280;6164;42.178;24.622;2023-04-29T09:39:12;99880.66;;;18.49;46.23
12203;BME280;6164;42.178;24.622;2023-04-29T09:41:42;99866.06;;;18.51;47.71
12203;BME280;6164;42.178;24.622;2023-04-29T09:44:23;99901.31;;;18.79;44.72
12203;BME280;6164;42.178;24.622;2023-04-29T09:46:54;99913.53;;;19.00;45.14
12203;BME280;6164;42.178;24.622;2023-04-29T09:49:22;99924.38;;;19.11;44.66
12203;BME280;6164;42.178;24.622;2023-04-29T09:51:55;99889.50;;;19.31;46.31
12203;BME280;6164;42.178;24.622;2023-04-29T09:54:24;99886.75;;;19.37;45.15
12203;BME280;6164;42.178;24.622;2023-04-29T09:56:53;99939.88;;;19.72;43.11
12203;BME280;6164;42.178;24.622;2023-04-29T09:59:21;100013.16;;;19.77;38.65
12203;BME280;6164;42.178;24.622;2023-04-29T10:01:50;100048.47;;;19.67;38.70
12203;BME280;6164;42.178;24.622;2023-04-29T10:04:19;100061.88;;;19.67;39.04
12203;BME280;6164;42.178;24.622;2023-04-29T10:06:48;100049.00;;;19.83;40.18
12203;BME280;6164;42.178;24.622;2023-04-29T10:09:18;100019.41;;;19.96;41.38
12203;BME280;6164;42.178;24.622;2023-04-29T10:11:46;100007.34;;;20.11;41.51
12203;BME280;6164;42.178;24.622;2023-04-29T10:14:15;100034.63;;;20.33;39.70
12203;BME280;6164;42.178;24.622;2023-04-29T10:16:46;100100.44;;;20.53;36.56
12203;BME280;6164;42.178;24.622;2023-04-29T10:19:24;100151.00;;;20.74;34.77
12203;BME280;6164;42.178;24.622;2023-04-29T10:21:53;100166.53;;;20.97;35.72
12203;BME280;6164;42.178;24.622;2023-04-29T10:24:24;100188.03;;;21.15;34.28
12203;BME280;6164;42.178;24.622;2023-04-29T10:26:52;100224.72;;;21.21;34.17
12203;BME280;6164;42.178;24.622;2023-04-29T10:29:21;100185.03;;;21.23;35.25
12203;BME280;6164;42.178;24.622;2023-04-29T10:31:49;100183.25;;;21.53;36.23
12203;BME280;6164;42.178;24.622;2023-04-29T10:34:16;100238.19;;;21.57;33.61
12203;BME280;6164;42.178;24.622;2023-04-29T10:36:45;100215.94;;;21.68;35.52
12203;BME280;6164;42.178;24.622;2023-04-29T10:39:20;100211.53;;;21.74;35.42
12203;BME280;6164;42.178;24.622;2023-04-29T10:41:51;100256.31;;;21.62;32.44
12203;BME280;6164;42.178;24.622;2023-04-29T10:44:19;100288.47;;;21.50;32.98
12203;BME280;6164;42.178;24.622;2023-04-29T10:46:46;100283.78;;;21.46;33.46
12203;BME280;6164;42.178;24.622;2023-04-29T10:49:12;100300.34;;;21.43;33.61
12203;BME280;6164;42.178;24.622;2023-04-29T10:51:41;100296.69;;;21.55;33.29
12203;BME280;6164;42.178;24.622;2023-04-29T10:54:09;100299.22;;;21.50;33.86
12203;BME280;6164;42.178;24.622;2023-04-29T10:56:42;100294.94;;;21.85;32.92
12203;BME280;6164;42.178;24.622;2023-04-29T10:59:12;100298.31;;;22.17;33.33
12203;BME280;6164;42.178;24.622;2023-04-29T11:01:41;100312.28;;;22.26;33.29
12203;BME280;6164;42.178;24.622;2023-04-29T11:04:08;100337.44;;;22.13;31.72
12203;BME280;6164;42.178;24.622;2023-04-29T11:06:44;100339.22;;;22.37;32.55
12203;BME280;6164;42.178;24.622;2023-04-29T11:09:19;100333.31;;;22.47;32.15
12203;BME280;6164;42.178;24.622;2023-04-29T11:11:57;100356.78;;;22.58;30.29
12203;BME280;6164;42.178;24.622;2023-04-29T11:14:29;100357.06;;;22.50;30.50
12203;BME280;6164;42.178;24.622;2023-04-29T11:16:57;100401.56;;;22.82;30.19
12203;BME280;6164;42.178;24.622;2023-04-29T11:19:31;100410.28;;;22.66;30.85
12203;BME280;6164;42.178;24.622;2023-04-29T11:22:12;100398.03;;;22.70;30.76
12203;BME280;6164;42.178;24.622;2023-04-29T11:24:50;100363.69;;;22.95;31.43
12203;BME280;6164;42.178;24.622;2023-04-29T11:27:18;100366.78;;;23.10;32.18
12203;BME280;6164;42.178;24.622;2023-04-29T11:29:49;100380.81;;;23.00;31.81
12203;BME280;6164;42.178;24.622;2023-04-29T11:32:19;100369.50;;;23.21;31.92
12203;BME280;6164;42.178;24.622;2023-04-29T11:34:46;100361.84;;;23.48;31.81
12203;BME280;6164;42.178;24.622;2023-04-29T11:37:19;100384.59;;;23.64;30.45
12203;BME280;6164;42.178;24.622;2023-04-29T11:39:46;100408.47;;;23.49;30.80
12203;BME280;6164;42.178;24.622;2023-04-29T11:42:12;100379.88;;;23.59;31.75
12203;BME280;6164;42.178;24.622;2023-04-29T11:44:39;100371.91;;;23.87;32.49
12203;BME280;6164;42.178;24.622;2023-04-29T11:47:07;100361.16;;;23.99;32.64
12203;BME280;6164;42.178;24.622;2023-04-29T11:49:34;100396.66;;;23.73;30.35
12203;BME280;6164;42.178;24.622;2023-04-29T11:52:02;100393.72;;;23.86;31.03
12203;BME280;6164;42.178;24.622;2023-04-29T11:54:29;100415.47;;;23.26;30.33
12203;BME280;6164;42.178;24.622;2023-04-29T11:56:57;100430.66;;;22.91;31.16
12203;BME280;6164;42.178;24.622;2023-04-29T11:59:24;100435.09;;;22.50;31.32
12203;BME280;6164;42.178;24.622;2023-04-29T12:01:51;100414.25;;;22.81;31.11
12203;BME280;6164;42.178;24.622;2023-04-29T12:04:19;100421.22;;;23.00;29.42
12203;BME280;6164;42.178;24.622;2023-04-29T12:06:50;100434.63;;;23.18;29.67
12203;BME280;6164;42.178;24.622;2023-04-29T12:09:17;100414.81;;;23.42;30.93
12203;BME280;6164;42.178;24.622;2023-04-29T12:11:44;100405.69;;;23.67;30.34
12203;BME280;6164;42.178;24.622;2023-04-29T12:14:12;100432.53;;;23.73;29.79
12203;BME280;6164;42.178;24.622;2023-04-29T12:16:39;100458.19;;;23.64;29.05
12203;BME280;6164;42.178;24.622;2023-04-29T12:19:07;100481.28;;;23.60;28.29
12203;BME280;6164;42.178;24.622;2023-04-29T12:21:36;100503.84;;;23.48;28.05
12203;BME280;6164;42.178;24.622;2023-04-29T12:24:03;100494.13;;;23.47;28.94
12203;BME280;6164;42.178;24.622;2023-04-29T12:26:30;100487.38;;;23.56;29.16
12203;BME280;6164;42.178;24.622;2023-04-29T12:28:58;100501.78;;;23.61;29.03
12203;BME280;6164;42.178;24.622;2023-04-29T12:31:31;100502.50;;;23.68;27.93
12203;BME280;6164;42.178;24.622;2023-04-29T12:33:59;100532.63;;;23.65;27.63
12203;BME280;6164;42.178;24.622;2023-04-29T12:36:27;100549.94;;;23.58;27.21
12203;BME280;6164;42.178;24.622;2023-04-29T12:38:55;100538.81;;;23.54;28.87
12203;BME280;6164;42.178;24.622;2023-04-29T12:41:35;100524.34;;;23.37;29.74
12203;BME280;6164;42.178;24.622;2023-04-29T12:44:02;100541.44;;;23.31;28.12
12203;BME280;6164;42.178;24.622;2023-04-29T12:46:33;100527.03;;;23.19;28.24
12203;BME280;6164;42.178;24.622;2023-04-29T12:49:03;100562.91;;;23.19;27.96
12203;BME280;6164;42.178;24.622;2023-04-29T12:51:30;100539.00;;;23.23;29.13
12203;BME280;6164;42.178;24.622;2023-04-29T12:54:00;100488.09;;;23.33;32.11
12203;BME280;6164;42.178;24.622;2023-04-29T12:56:28;100505.66;;;23.06;29.18
12203;BME280;6164;42.178;24.622;2023-04-29T12:58:55;100492.47;;;23.16;29.74
12203;BME280;6164;42.178;24.622;2023-04-29T13:01:22;100466.66;;;23.26;31.27